Time;durP1;ratioP1;P1;durP2;ratioP2;P2;SDS_P1;SDS_P2;PMS_P1;PMS_P2;Temp;Humidity;BMP_temperature;BMP_pressure;BME280_temperature;BME280_humidity;BME280_pressure;Samples;Min_cycle;Max_cycle;Signal;HPM_P1;HPM_P2
2021/05/13 00:01:48;;;;;;;14.13;7.78;;;11.50;92.90;;;;;;5129819;27;20601;-46
2021/05/13 00:04:14;;;;;;;18.52;7.55;;;11.50;92.70;;;;;;5129150;27;20133;-46
2021/05/13 00:06:41;;;;;;;21.10;6.53;;;11.50;93.00;;;;;;5129690;27;20039;-46
2021/05/13 00:09:09;;;;;;;23.20;6.90;;;11.50;93.10;;;;;;5128474;27;20127;-46
2021/05/13 00:11:37;;;;;;;25.20;7.97;;;11.50;93.20;;;;;;5124719;27;20127;-47
2021/05/13 00:14:06;;;;;;;21.85;7.25;;;11.50;93.10;;;;;;5115376;27;20433;-45
2021/05/13 00:16:36;;;;;;;19.25;6.93;;;11.50;93.20;;;;;;5128782;27;20433;-47
2021/05/13 00:19:09;;;;;;;21.13;6.70;;;11.40;93.40;;;;;;5112216;27;20043;-45
2021/05/13 00:21:37;;;;;;;19.83;6.93;;;11.40;93.40;;;;;;5130309;27;20051;-47
2021/05/13 00:24:07;;;;;;;25.23;8.55;;;11.40;93.30;;;;;;5130213;27;20104;-48
2021/05/13 00:26:38;;;;;;;20.17;7.47;;;11.40;93.40;;;;;;5129863;27;20089;-48
2021/05/13 00:29:07;;;;;;;22.25;7.55;;;11.40;93.90;;;;;;5109580;27;20044;-45
2021/05/13 00:31:33;;;;;;;24.48;7.30;;;11.30;93.60;;;;;;5125118;27;20067;-45
2021/05/13 00:34:01;;;;;;;24.40;7.60;;;11.30;93.70;;;;;;5109759;27;20044;-48
2021/05/13 00:36:30;;;;;;;25.30;8.30;;;11.40;93.70;;;;;;5108211;28;20119;-45
2021/05/13 00:38:56;;;;;;;20.38;7.53;;;11.30;94.00;;;;;;5109052;28;20051;-44
2021/05/13 00:41:23;;;;;;;19.73;7.15;;;11.30;93.90;;;;;;5109652;28;20414;-45
2021/05/13 00:43:50;;;;;;;24.95;7.75;;;11.30;93.90;;;;;;5109371;28;20047;-44
2021/05/13 00:46:16;;;;;;;25.60;7.70;;;11.40;93.80;;;;;;5108069;27;20597;-45
2021/05/13 00:48:46;;;;;;;23.48;8.35;;;11.40;93.70;;;;;;5107664;27;20073;-47
2021/05/13 00:51:14;;;;;;;21.50;7.05;;;11.40;93.70;;;;;;5108789;28;20071;-46
2021/05/13 00:53:44;;;;;;;20.45;7.10;;;11.40;93.80;;;;;;5108890;28;20196;-46
2021/05/13 00:56:11;;;;;;;18.00;7.15;;;11.40;93.70;;;;;;5109736;27;20047;-46
2021/05/13 00:58:41;;;;;;;21.17;6.63;;;11.40;93.60;;;;;;5108845;28;20047;-49
2021/05/13 01:01:12;;;;;;;18.13;7.32;;;11.40;93.70;;;;;;5108387;28;20047;-47
2021/05/13 01:03:39;;;;;;;19.27;7.03;;;11.40;93.50;;;;;;5109039;28;20062;-47
2021/05/13 01:06:10;;;;;;;23.05;8.02;;;11.40;93.60;;;;;;5102841;27;20487;-45
2021/05/13 01:08:36;;;;;;;22.58;8.48;;;11.30;93.60;;;;;;5089579;28;20052;-46
2021/05/13 01:11:03;;;;;;;18.73;7.57;;;11.40;93.70;;;;;;5107540;28;20054;-45
2021/05/13 01:13:32;;;;;;;17.63;7.43;;;11.40;93.80;;;;;;5114642;27;20487;-46
2021/05/13 01:16:11;;;;;;;21.38;6.82;;;11.40;93.70;;;;;;5104036;28;20384;-49
2021/05/13 01:18:39;;;;;;;15.68;7.15;;;11.40;93.50;;;;;;5106565;28;20067;-47
2021/05/13 01:21:06;;;;;;;18.83;7.30;;;11.30;93.60;;;;;;5107465;28;20055;-48
2021/05/13 01:23:32;;;;;;;20.58;7.57;;;11.30;93.50;;;;;;5106458;28;20083;-45
2021/05/13 01:26:00;;;;;;;21.60;8.43;;;11.40;93.50;;;;;;5113415;27;20729;-46
2021/05/13 01:28:29;;;;;;;20.40;6.95;;;11.30;93.50;;;;;;5108281;27;20499;-45
2021/05/13 01:30:57;;;;;;;22.70;7.78;;;11.30;93.40;;;;;;5129232;27;20051;-46
2021/05/13 01:33:26;;;;;;;20.20;7.00;;;11.30;93.30;;;;;;5129419;27;20047;-48
2021/05/13 01:35:53;;;;;;;18.15;6.97;;;11.30;93.30;;;;;;5128517;27;20047;-46
2021/05/13 01:38:22;;;;;;;17.08;6.47;;;11.30;93.20;;;;;;5125500;27;20042;-46
2021/05/13 01:40:58;;;;;;;16.90;6.82;;;11.30;93.20;;;;;;5128453;27;20104;-47
2021/05/13 01:43:27;;;;;;;20.92;6.30;;;11.20;93.10;;;;;;5135756;27;20079;-48
2021/05/13 01:45:53;;;;;;;20.75;6.85;;;11.30;93.10;;;;;;5129014;27;20385;-46
2021/05/13 01:48:20;;;;;;;22.27;7.80;;;11.20;93.10;;;;;;5127281;27;20043;-45
2021/05/13 01:50:49;;;;;;;19.10;7.45;;;11.20;93.20;;;;;;5126733;27;20076;-46
2021/05/13 01:53:16;;;;;;;19.98;6.93;;;11.10;93.30;;;;;;5112439;27;20098;-47
2021/05/13 01:55:42;;;;;;;22.67;7.50;;;11.10;93.20;;;;;;5108259;28;20058;-46
2021/05/13 01:58:08;;;;;;;18.67;7.28;;;11.20;93.30;;;;;;5121904;27;20045;-45
2021/05/13 02:00:35;;;;;;;21.77;8.35;;;11.10;93.40;;;;;;5126964;27;20054;-45
2021/05/13 02:03:03;;;;;;;19.52;7.97;;;11.10;93.60;;;;;;5127914;27;20047;-48
2021/05/13 02:05:29;;;;;;;19.27;7.07;;;11.10;93.50;;;;;;5127711;27;20108;-46
2021/05/13 02:07:58;;;;;;;18.88;7.28;;;11.10;93.50;;;;;;5130889;27;20410;-47
2021/05/13 02:10:25;;;;;;;19.65;7.50;;;11.10;93.40;;;;;;5126698;27;20054;-45
2021/05/13 02:12:56;;;;;;;20.05;8.07;;;11.10;93.50;;;;;;5113417;27;20050;-46
2021/05/13 02:15:23;;;;;;;21.10;8.23;;;11.10;93.30;;;;;;5127979;27;20051;-47
2021/05/13 02:17:49;;;;;;;18.02;8.45;;;11.10;93.30;;;;;;5105600;28;20496;-49
2021/05/13 02:20:18;;;;;;;20.17;7.35;;;11.00;93.50;;;;;;5114631;27;20047;-48
2021/05/13 02:22:44;;;;;;;17.60;7.80;;;11.10;93.60;;;;;;5123734;27;20116;-46
2021/05/13 02:25:11;;;;;;;19.08;7.85;;;11.00;93.60;;;;;;5128415;28;20055;-47
2021/05/13 02:27:38;;;;;;;14.93;7.20;;;11.00;93.70;;;;;;5133047;27;20051;-49
2021/05/13 02:30:10;;;;;;;25.35;9.00;;;11.00;93.70;;;;;;5126972;27;20083;-45
2021/05/13 02:32:39;;;;;;;19.63;8.07;;;11.00;93.80;;;;;;5125134;27;20071;-45
2021/05/13 02:35:07;;;;;;;15.73;7.18;;;11.00;93.80;;;;;;5127713;28;20051;-46
2021/05/13 02:37:33;;;;;;;16.92;7.97;;;10.90;93.60;;;;;;5127852;27;20973;-48
2021/05/13 02:40:00;;;;;;;16.25;8.00;;;11.00;93.80;;;;;;5128344;28;20074;-46
2021/05/13 02:42:26;;;;;;;16.92;7.13;;;10.90;93.80;;;;;;5126764;27;20464;-46
2021/05/13 02:44:55;;;;;;;20.58;8.07;;;11.00;93.80;;;;;;5131231;27;20131;-48
2021/05/13 02:47:24;;;;;;;21.17;7.53;;;10.90;93.80;;;;;;5126809;28;20051;-46
2021/05/13 02:49:50;;;;;;;20.35;9.40;;;10.90;93.80;;;;;;5128628;28;20142;-45
2021/05/13 02:52:16;;;;;;;17.55;7.35;;;10.90;93.90;;;;;;5126317;27;20047;-51
2021/05/13 02:54:42;;;;;;;21.60;9.20;;;10.90;94.10;;;;;;5127156;27;20070;-46
2021/05/13 02:57:09;;;;;;;18.52;9.05;;;10.90;93.90;;;;;;5126979;27;20058;-47
2021/05/13 03:02:11;;;;;;;21.90;9.95;;;10.90;94.20;;;;;;5128731;27;20490;-46
2021/05/13 03:04:37;;;;;;;20.55;7.70;;;10.80;94.10;;;;;;5137880;27;20064;-46
2021/05/13 03:07:08;;;;;;;18.15;8.07;;;10.80;94.00;;;;;;5132813;27;20046;-46
2021/05/13 03:09:41;;;;;;;19.52;8.18;;;10.80;94.20;;;;;;5131461;27;20050;-45
2021/05/13 03:12:08;;;;;;;19.85;9.73;;;10.80;94.50;;;;;;5135632;27;20114;-50
2021/05/13 03:14:36;;;;;;;18.65;9.23;;;10.70;94.20;;;;;;5133864;27;20165;-45
2021/05/13 03:17:02;;;;;;;18.85;8.88;;;10.70;94.20;;;;;;5132051;27;20130;-46
2021/05/13 03:19:56;;;;;;;16.83;8.80;;;10.60;94.30;;;;;;5132053;27;20050;-45
2021/05/13 03:22:17;;;;;;;16.63;8.13;;;10.60;94.20;;;;;;5130784;27;20043;-45
2021/05/13 03:27:25;;;;;;;18.52;9.10;;;10.50;94.30;;;;;;5135938;27;20565;-48
2021/05/13 03:29:58;;;;;;;15.05;9.07;;;10.50;94.20;;;;;;5130274;27;20103;-47
2021/05/13 03:32:24;;;;;;;17.85;9.93;;;10.50;94.20;;;;;;5131227;27;20138;-47
2021/05/13 03:34:50;;;;;;;15.68;9.43;;;10.40;94.30;;;;;;5129616;27;20043;-46
2021/05/13 03:37:19;;;;;;;21.08;9.93;;;10.30;94.30;;;;;;5129229;27;20096;-46
2021/05/13 03:39:45;;;;;;;18.55;9.55;;;10.40;94.40;;;;;;5130443;27;20777;-45
2021/05/13 03:42:11;;;;;;;19.88;9.25;;;10.30;94.50;;;;;;5131593;27;20047;-50
2021/05/13 03:44:40;;;;;;;18.95;10.15;;;10.20;94.40;;;;;;5129518;27;20486;-47
2021/05/13 03:47:07;;;;;;;17.55;10.05;;;10.20;94.50;;;;;;5129694;27;20070;-46
2021/05/13 03:49:34;;;;;;;18.88;9.50;;;10.20;94.60;;;;;;5129768;27;20589;-47
2021/05/13 03:52:00;;;;;;;18.13;9.32;;;10.20;94.60;;;;;;5132517;27;20039;-46
2021/05/13 03:54:26;;;;;;;21.88;9.48;;;10.10;94.60;;;;;;5131275;27;20051;-46
2021/05/13 03:56:52;;;;;;;19.98;10.95;;;10.10;94.70;;;;;;5128865;27;20051;-49
2021/05/13 03:59:40;;;;;;;18.70;9.83;;;10.10;94.80;;;;;;5130839;27;20090;-45
2021/05/13 04:02:12;;;;;;;21.13;9.55;;;10.00;94.90;;;;;;5130526;27;20035;-47
2021/05/13 04:04:38;;;;;;;22.45;10.52;;;10.00;94.90;;;;;;5128780;27;20065;-47
2021/05/13 04:07:05;;;;;;;20.70;9.93;;;10.00;95.10;;;;;;5122726;27;20500;-46
2021/05/13 04:09:31;;;;;;;20.70;10.32;;;10.00;95.00;;;;;;5123979;27;20051;-46
2021/05/13 04:11:58;;;;;;;16.67;9.45;;;10.00;95.00;;;;;;5107919;27;20414;-47
2021/05/13 04:14:24;;;;;;;16.55;9.63;;;10.00;95.00;;;;;;5125173;27;20581;-46
2021/05/13 04:16:54;;;;;;;17.95;10.10;;;9.90;95.00;;;;;;5107909;27;20051;-47
2021/05/13 04:19:21;;;;;;;18.60;10.75;;;10.00;94.90;;;;;;5123094;27;20047;-46
2021/05/13 04:21:48;;;;;;;22.95;10.52;;;10.00;95.00;;;;;;5124628;27;20043;-49
2021/05/13 04:24:14;;;;;;;21.02;9.07;;;9.90;95.10;;;;;;5129612;27;20048;-46
2021/05/13 04:26:44;;;;;;;16.15;9.50;;;10.00;94.90;;;;;;5130454;27;20039;-48
2021/05/13 04:29:10;;;;;;;14.85;8.75;;;10.00;94.90;;;;;;5129392;27;20055;-47
2021/05/13 04:31:36;;;;;;;16.08;9.05;;;10.00;94.90;;;;;;5127558;27;20043;-48
2021/05/13 04:34:06;;;;;;;21.95;9.38;;;10.00;94.90;;;;;;5130024;27;20054;-45
2021/05/13 04:36:32;;;;;;;18.25;9.35;;;10.00;95.20;;;;;;5128524;27;20124;-45
2021/05/13 04:38:58;;;;;;;21.90;10.45;;;10.10;95.00;;;;;;5129923;27;20043;-45
2021/05/13 04:41:28;;;;;;;17.33;9.45;;;10.10;95.00;;;;;;5129693;27;20051;-45
2021/05/13 04:43:58;;;;;;;23.40;10.25;;;10.20;95.00;;;;;;5129562;27;20047;-47
2021/05/13 04:46:29;;;;;;;18.10;9.32;;;10.20;95.00;;;;;;5130043;27;20051;-48
2021/05/13 04:49:15;;;;;;;17.23;9.27;;;10.30;95.20;;;;;;5110969;27;20058;-49
2021/05/13 04:51:41;;;;;;;16.75;9.10;;;10.40;94.90;;;;;;5129318;27;20483;-48
2021/05/13 04:54:07;;;;;;;19.55;8.77;;;10.40;94.80;;;;;;5131904;27;20043;-47
2021/05/13 04:56:35;;;;;;;19.27;8.93;;;10.40;94.90;;;;;;5130401;27;20050;-47
2021/05/13 04:59:01;;;;;;;18.92;9.48;;;10.50;94.80;;;;;;5118914;27;20059;-47
2021/05/13 05:01:27;;;;;;;19.45;8.80;;;10.50;94.70;;;;;;5126009;27;20046;-49
2021/05/13 05:03:53;;;;;;;19.70;7.93;;;10.60;94.70;;;;;;5130469;27;20051;-47
2021/05/13 05:06:19;;;;;;;21.27;8.30;;;10.70;94.50;;;;;;5131853;27;20046;-49
2021/05/13 05:08:46;;;;;;;14.32;7.90;;;10.70;94.40;;;;;;5128599;27;20485;-46
2021/05/13 05:11:12;;;;;;;13.65;7.85;;;10.80;94.30;;;;;;5129286;27;20451;-48
2021/05/13 05:13:38;;;;;;;19.58;9.23;;;10.90;94.20;;;;;;5129339;27;20474;-47
2021/05/13 05:16:04;;;;;;;14.65;8.27;;;10.90;94.10;;;;;;5119250;27;20100;-46
2021/05/13 05:18:31;;;;;;;16.25;7.70;;;11.10;94.00;;;;;;5109443;28;20553;-47
2021/05/13 05:20:57;;;;;;;16.08;8.20;;;11.40;94.00;;;;;;5126497;27;20103;-46
2021/05/13 05:23:25;;;;;;;15.02;7.60;;;11.50;93.60;;;;;;5112733;27;20036;-46
2021/05/13 05:25:51;;;;;;;18.13;7.13;;;11.60;93.40;;;;;;5109976;27;20448;-47
2021/05/13 05:28:18;;;;;;;15.35;7.32;;;11.60;93.20;;;;;;5125152;27;20047;-46
2021/05/13 05:30:44;;;;;;;17.27;6.88;;;11.80;93.00;;;;;;5127058;27;20063;-46
2021/05/13 05:33:10;;;;;;;17.08;7.18;;;11.80;92.90;;;;;;5129445;27;20066;-48
2021/05/13 05:35:38;;;;;;;12.05;7.05;;;12.00;92.90;;;;;;5129841;27;20089;-47
2021/05/13 05:38:06;;;;;;;16.58;7.30;;;12.30;92.70;;;;;;5130088;27;20051;-48
2021/05/13 05:40:33;;;;;;;17.90;7.13;;;12.50;92.50;;;;;;5119722;27;20075;-47
2021/05/13 05:43:04;;;;;;;16.83;7.45;;;12.80;92.10;;;;;;5109236;28;20470;-48
2021/05/13 05:45:31;;;;;;;12.75;6.28;;;13.00;91.90;;;;;;5118005;27;20039;-46
2021/05/13 05:48:00;;;;;;;14.43;7.30;;;13.00;91.60;;;;;;5128806;27;20092;-48
2021/05/13 05:50:34;;;;;;;10.50;6.13;;;13.10;91.30;;;;;;5128413;27;20043;-47
2021/05/13 05:53:00;;;;;;;12.68;6.53;;;13.00;91.40;;;;;;5127843;27;20055;-46
2021/05/13 05:55:31;;;;;;;15.65;7.15;;;13.00;91.20;;;;;;5108486;28;20051;-47
2021/05/13 05:57:58;;;;;;;17.13;6.55;;;13.00;91.20;;;;;;5123132;27;20058;-46
2021/05/13 06:00:24;;;;;;;16.13;7.43;;;13.10;91.20;;;;;;5127970;27;20047;-51
2021/05/13 06:02:50;;;;;;;16.33;6.72;;;13.20;91.00;;;;;;5124357;27;20043;-46
2021/05/13 06:05:19;;;;;;;15.85;6.38;;;13.20;90.90;;;;;;5127739;27;20047;-46
2021/05/13 06:07:45;;;;;;;17.75;7.10;;;13.20;90.80;;;;;;5125740;27;20072;-47
2021/05/13 06:10:14;;;;;;;12.30;5.90;;;13.20;90.80;;;;;;5127820;27;20448;-47
2021/05/13 06:12:41;;;;;;;14.00;5.78;;;13.20;90.20;;;;;;5115301;27;20574;-46
2021/05/13 06:15:11;;;;;;;15.40;5.75;;;13.20;90.20;;;;;;5125064;27;20058;-49
2021/05/13 06:17:41;;;;;;;19.23;7.00;;;13.20;89.50;;;;;;5128496;27;20961;-47
2021/05/13 06:20:25;;;;;;;14.68;6.45;;;13.20;90.00;;;;;;5127221;27;20058;-49
2021/05/13 06:22:51;;;;;;;12.27;6.20;;;13.30;89.50;;;;;;5126724;27;20807;-47
2021/05/13 06:25:19;;;;;;;14.10;6.57;;;13.50;89.50;;;;;;5109705;28;20043;-48
2021/05/13 06:27:49;;;;;;;13.98;6.25;;;13.80;88.40;;;;;;5110146;28;20047;-47
2021/05/13 06:30:17;;;;;;;16.65;6.13;;;14.40;88.80;;;;;;5126502;27;20071;-51
2021/05/13 06:32:47;;;;;;;16.35;6.30;;;14.90;87.30;;;;;;5127296;27;20047;-47
2021/05/13 06:35:15;;;;;;;11.80;5.60;;;15.40;86.20;;;;;;5107322;27;20055;-51
2021/05/13 06:37:42;;;;;;;12.70;4.68;;;15.70;84.50;;;;;;5129074;27;20147;-45
2021/05/13 06:40:16;;;;;;;13.23;5.07;;;15.80;83.50;;;;;;5131290;27;20169;-46
2021/05/13 06:42:45;;;;;;;11.30;4.63;;;16.00;81.80;;;;;;5130318;27;20051;-47
2021/05/13 06:45:13;;;;;;;10.90;4.50;;;16.30;81.80;;;;;;5130152;27;20165;-45
2021/05/13 06:47:45;;;;;;;10.13;4.45;;;16.50;78.80;;;;;;5131525;27;20084;-48
2021/05/13 06:50:12;;;;;;;16.00;7.85;;;16.70;79.50;;;;;;5131050;27;20079;-49
2021/05/13 06:52:48;;;;;;;10.77;4.22;;;17.00;78.70;;;;;;5129193;27;20039;-48
2021/05/13 06:55:14;;;;;;;38.92;29.15;;;17.00;77.20;;;;;;5131998;27;20406;-48
2021/05/13 06:57:41;;;;;;;13.77;6.82;;;17.20;76.40;;;;;;5131988;27;20057;-49
2021/05/13 07:00:19;;;;;;;15.27;7.13;;;17.30;75.90;;;;;;5125867;27;20434;-51
2021/05/13 07:02:47;;;;;;;16.95;7.90;;;17.60;75.60;;;;;;5130713;27;20051;-46
2021/05/13 07:05:14;;;;;;;15.07;5.13;;;17.90;74.70;;;;;;5130087;27;20047;-49
2021/05/13 07:07:41;;;;;;;16.83;10.27;;;17.90;72.30;;;;;;5130013;27;20043;-48
2021/05/13 07:10:08;;;;;;;11.65;3.47;;;17.90;71.60;;;;;;5131968;27;20096;-47
2021/05/13 07:12:34;;;;;;;39.85;35.58;;;18.20;71.20;;;;;;5131220;27;20047;-48
2021/05/13 07:15:02;;;;;;;12.57;4.85;;;18.10;70.80;;;;;;5131106;27;20043;-51
2021/05/13 07:17:30;;;;;;;42.70;32.15;;;18.10;68.60;;;;;;5121307;27;20051;-49
2021/05/13 07:19:56;;;;;;;27.83;18.27;;;18.30;68.80;;;;;;5097210;27;20053;-48
2021/05/13 07:22:22;;;;;;;87.03;77.88;;;18.30;68.30;;;;;;5121096;27;20487;-49
2021/05/13 07:24:48;;;;;;;9.35;3.42;;;18.40;68.20;;;;;;5123921;27;20499;-47
2021/05/13 07:27:17;;;;;;;13.50;7.70;;;18.70;68.10;;;;;;5132294;27;20047;-51
2021/05/13 07:29:43;;;;;;;10.95;4.50;;;18.70;65.50;;;;;;5131424;27;20075;-46
2021/05/13 07:32:09;;;;;;;20.00;12.18;;;18.50;66.50;;;;;;5130378;27;20072;-48
2021/05/13 07:34:35;;;;;;;12.25;2.85;;;18.70;66.00;;;;;;5119937;27;20062;-47
2021/05/13 07:37:02;;;;;;;21.90;13.13;;;18.80;66.10;;;;;;5121187;27;20039;-48
2021/05/13 07:39:29;;;;;;;69.40;62.40;;;19.20;64.90;;;;;;5111361;28;20047;-48
2021/05/13 07:41:57;;;;;;;15.68;7.97;;;19.20;63.80;;;;;;5129066;27;20122;-48
2021/05/13 07:44:26;;;;;;;15.60;7.28;;;19.50;63.70;;;;;;5118822;27;20050;-46
2021/05/13 07:46:54;;;;;;;15.43;10.00;;;19.40;63.30;;;;;;5118375;27;20047;-49
2021/05/13 07:49:21;;;;;;;8.70;2.65;;;19.50;60.80;;;;;;5118049;27;20043;-51
2021/05/13 07:51:48;;;;;;;10.00;3.38;;;19.50;61.90;;;;;;5125819;27;20466;-51
2021/05/13 07:54:15;;;;;;;10.90;4.38;;;19.60;59.50;;;;;;5128586;27;20050;-52
2021/05/13 07:56:41;;;;;;;6.40;2.20;;;19.30;60.20;;;;;;5129785;27;20046;-48
2021/05/13 07:59:07;;;;;;;8.63;3.40;;;19.10;58.70;;;;;;5129055;27;20054;-49
2021/05/13 08:01:33;;;;;;;7.43;2.38;;;19.50;59.60;;;;;;5117064;27;20048;-51
2021/05/13 08:03:59;;;;;;;9.38;3.33;;;19.50;59.40;;;;;;5131884;27;20047;-51
2021/05/13 08:06:25;;;;;;;8.70;2.40;;;19.70;58.80;;;;;;5129060;27;20612;-49
2021/05/13 08:08:51;;;;;;;9.35;3.72;;;19.80;59.40;;;;;;5130789;27;20079;-48
2021/05/13 08:11:17;;;;;;;8.93;4.53;;;20.00;57.40;;;;;;5133289;27;20066;-50
2021/05/13 08:13:43;;;;;;;54.78;49.17;;;20.10;57.40;;;;;;5124964;27;20361;-51
2021/05/13 08:16:09;;;;;;;5.72;2.30;;;20.10;56.90;;;;;;5132862;27;20497;-48
2021/05/13 08:18:35;;;;;;;11.00;8.38;;;20.40;56.20;;;;;;5125403;27;20047;-49
2021/05/13 08:21:02;;;;;;;7.78;3.47;;;20.30;54.10;;;;;;5128939;27;20046;-51
2021/05/13 08:23:28;;;;;;;6.85;2.13;;;20.50;55.20;;;;;;5130629;27;20424;-51
2021/05/13 08:25:54;;;;;;;7.80;2.70;;;20.50;55.00;;;;;;5122180;27;20047;-49
2021/05/13 08:28:31;;;;;;;7.07;1.95;;;20.70;54.80;;;;;;5127087;27;20047;-51
2021/05/13 08:30:57;;;;;;;7.03;3.13;;;20.80;54.50;;;;;;5130473;27;20142;-49
2021/05/13 08:33:23;;;;;;;13.75;8.15;;;20.90;51.60;;;;;;5131433;27;20088;-49
2021/05/13 08:35:49;;;;;;;4.75;2.05;;;21.30;52.50;;;;;;5121314;27;20460;-53
2021/05/13 08:38:18;;;;;;;7.05;2.17;;;21.30;53.40;;;;;;5130739;27;20139;-54
2021/05/13 08:40:44;;;;;;;7.60;1.77;;;21.20;51.10;;;;;;5117172;27;20051;-54
2021/05/13 08:43:24;;;;;;;6.95;2.33;;;21.50;52.10;;;;;;5129108;27;20479;-52
2021/05/13 08:45:52;;;;;;;5.43;1.60;;;21.40;49.00;;;;;;5130641;27;20655;-51
2021/05/13 08:48:19;;;;;;;7.95;1.90;;;21.20;49.00;;;;;;5132886;27;20039;-53
2021/05/13 08:50:45;;;;;;;13.93;9.23;;;21.60;49.50;;;;;;5112219;27;20039;-54
2021/05/13 08:53:14;;;;;;;3.60;1.20;;;21.70;48.80;;;;;;5122592;27;20543;-50
2021/05/13 08:55:41;;;;;;;8.63;4.10;;;21.60;49.80;;;;;;5122624;27;20555;-54
2021/05/13 08:58:09;;;;;;;8.27;5.32;;;21.70;47.60;;;;;;5120081;27;20054;-51
2021/05/13 09:00:35;;;;;;;8.43;3.13;;;21.90;47.80;;;;;;5110147;27;20055;-52
2021/05/13 09:03:01;;;;;;;7.18;2.80;;;21.90;48.40;;;;;;5122470;27;20051;-52
2021/05/13 09:05:27;;;;;;;11.73;8.70;;;21.90;47.80;;;;;;5127148;27;20072;-53
2021/05/13 09:07:55;;;;;;;6.53;3.03;;;22.00;48.70;;;;;;5124191;27;20047;-54
2021/05/13 09:10:22;;;;;;;10.18;4.75;;;22.10;47.70;;;;;;5124562;27;20071;-49
2021/05/13 09:12:51;;;;;;;6.63;1.20;;;22.10;49.60;;;;;;5116760;27;20046;-50
2021/05/13 09:15:24;;;;;;;7.10;1.70;;;22.20;48.10;;;;;;5124258;27;20053;-51
2021/05/13 09:17:56;;;;;;;4.88;1.45;;;22.50;46.90;;;;;;5128513;27;20047;-53
2021/05/13 09:20:27;;;;;;;6.65;1.88;;;22.70;48.00;;;;;;5134797;27;20059;-53
2021/05/13 09:23:09;;;;;;;;;;;22.60;46.30;;;;;;5115144;27;20483;-54
2021/05/13 09:25:37;;;;;;;6.22;1.42;;;22.50;44.40;;;;;;5128662;27;20302;-54
2021/05/13 09:28:04;;;;;;;6.13;1.52;;;22.70;47.70;;;;;;5129447;27;20454;-54
2021/05/13 09:30:30;;;;;;;6.47;1.75;;;23.00;47.90;;;;;;5129071;27;20059;-53
2021/05/13 09:33:01;;;;;;;4.97;1.75;;;23.10;46.50;;;;;;5135345;27;20047;-53
2021/05/13 09:35:33;;;;;;;5.70;1.90;;;22.80;45.60;;;;;;5129490;27;20053;-53
2021/05/13 09:38:09;;;;;;;4.30;1.58;;;22.90;45.60;;;;;;5129446;27;20483;-51
2021/05/13 09:40:41;;;;;;;5.03;1.77;;;23.30;44.70;;;;;;5130053;27;20061;-53
2021/05/13 09:43:28;;;;;;;;;;;22.60;43.80;;;;;;5127419;27;20059;-53
2021/05/13 09:46:02;;;;;;;4.90;1.77;;;22.60;45.70;;;;;;5125155;27;19923;-53
2021/05/13 09:48:56;;;;;;;6.50;2.42;;;23.10;47.80;;;;;;5129186;27;20108;-53
2021/05/13 09:51:29;;;;;;;8.23;3.38;;;23.50;44.70;;;;;;5127802;27;20096;-53
2021/05/13 09:54:04;;;;;;;7.65;2.60;;;22.90;44.00;;;;;;5112708;27;20051;-53
2021/05/13 09:56:31;;;;;;;7.07;2.13;;;23.60;45.80;;;;;;5119310;27;20051;-52
2021/05/13 09:58:58;;;;;;;16.90;14.85;;;23.90;45.20;;;;;;5122471;27;20047;-52
2021/05/13 10:01:36;;;;;;;74.57;67.35;;;23.80;43.80;;;;;;5128900;27;20458;-55
2021/05/13 10:04:06;;;;;;;8.10;3.58;;;23.80;42.80;;;;;;5128238;27;20100;-54
2021/05/13 10:06:33;;;;;;;11.02;5.70;;;23.30;45.00;;;;;;5128182;27;20909;-53
2021/05/13 10:08:59;;;;;;;15.35;12.02;;;23.50;45.40;;;;;;5113832;27;20043;-59
2021/05/13 10:11:25;;;;;;;20.63;17.58;;;23.20;44.20;;;;;;5135297;27;20470;-53
2021/05/13 10:13:55;;;;;;;9.25;6.22;;;23.30;44.90;;;;;;5130510;27;20653;-54
2021/05/13 10:16:21;;;;;;;8.82;3.42;;;22.90;44.70;;;;;;5128300;27;20112;-52
2021/05/13 10:18:50;;;;;;;9.30;5.50;;;23.10;44.40;;;;;;5128858;27;20070;-53
2021/05/13 10:21:22;;;;;;;8.40;2.40;;;23.10;44.60;;;;;;5128519;27;20795;-51
2021/05/13 10:23:49;;;;;;;11.50;4.38;;;22.30;45.10;;;;;;5130051;27;20156;-49
2021/05/13 10:26:35;;;;;;;7.88;2.33;;;22.00;46.60;;;;;;5128100;27;20101;-52
2021/05/13 10:29:22;;;;;;;8.73;2.40;;;22.40;47.30;;;;;;5117501;28;20054;-51
2021/05/13 10:32:01;;;;;;;5.47;1.98;;;22.70;47.10;;;;;;5131208;27;20039;-51
2021/05/13 10:34:45;;;;;;;4.95;2.15;;;22.90;45.10;;;;;;5114211;28;20105;-51
2021/05/13 10:37:16;;;;;;;9.45;3.30;;;23.10;43.60;;;;;;5127571;27;20054;-47
2021/05/13 10:42:57;;;;;;;6.07;2.35;;;23.10;44.10;;;;;;5128958;27;20047;-49
2021/05/13 10:45:23;;;;;;;6.00;2.33;;;23.40;42.10;;;;;;5132808;27;20157;-51
2021/05/13 10:48:28;;;;;;;14.23;9.15;;;23.60;46.10;;;;;;5127898;27;20481;-49
2021/05/13 10:50:59;;;;;;;5.53;2.00;;;23.60;40.40;;;;;;5128254;28;20047;-50
2021/05/13 10:53:39;;;;;;;6.97;2.08;;;23.20;41.00;;;;;;5127834;28;20107;-49
2021/05/13 10:56:23;;;;;;;6.88;2.35;;;23.50;40.80;;;;;;5128339;27;20057;-51
2021/05/13 10:59:09;;;;;;;6.35;1.83;;;23.40;43.00;;;;;;5130857;27;20411;-50
2021/05/13 11:01:50;;;;;;;6.85;2.35;;;23.40;41.80;;;;;;5128264;28;20052;-49
2021/05/13 11:06:52;;;;;;;6.28;2.33;;;24.20;42.50;;;;;;5128263;28;20047;-52
2021/05/13 11:09:37;;;;;;;8.75;2.55;;;24.40;41.40;;;;;;5128581;27;20047;-53
2021/05/13 11:12:14;;;;;;;6.80;2.40;;;24.40;39.70;;;;;;5107868;28;20051;-54
2021/05/13 11:15:08;;;;;;;6.95;2.22;;;24.50;39.90;;;;;;5126119;27;20046;-53
2021/05/13 11:17:54;;;;;;;8.10;2.53;;;24.60;43.00;;;;;;5128230;27;20047;-52
2021/05/13 11:20:29;;;;;;;6.90;2.83;;;25.00;38.90;;;;;;5127528;28;20109;-55
2021/05/13 11:23:16;;;;;;;9.20;1.98;;;25.10;39.30;;;;;;5131344;27;20043;-54
2021/05/13 11:25:51;;;;;;;8.18;3.97;;;25.30;40.10;;;;;;5122796;27;20066;-53
2021/05/13 11:28:30;;;;;;;7.55;2.10;;;25.70;38.90;;;;;;5131709;27;20074;-54
2021/05/13 11:31:09;;;;;;;6.95;1.80;;;26.00;36.80;;;;;;5131862;27;20773;-55
2021/05/13 11:33:48;;;;;;;5.13;1.25;;;25.90;38.90;;;;;;5131883;27;20043;-53
2021/05/13 11:36:38;;;;;;;4.88;1.58;;;25.80;38.10;;;;;;5131187;27;20055;-53
2021/05/13 11:39:09;;;;;;;4.50;1.98;;;26.30;37.60;;;;;;5131547;27;20753;-52
2021/05/13 11:41:36;;;;;;;5.80;2.25;;;26.70;35.40;;;;;;5135029;27;20798;-50
2021/05/13 11:44:03;;;;;;;7.05;2.33;;;26.60;36.80;;;;;;5131398;27;20146;-51
2021/05/13 11:46:29;;;;;;;4.97;1.70;;;26.50;36.30;;;;;;5131511;27;20051;-51
2021/05/13 11:48:56;;;;;;;8.00;1.90;;;26.30;37.70;;;;;;5131094;27;20058;-51
2021/05/13 11:51:25;;;;;;;6.45;1.77;;;26.50;37.40;;;;;;5131399;27;20403;-51
2021/05/13 11:53:56;;;;;;;7.57;2.13;;;26.70;36.50;;;;;;5131129;27;20055;-49
2021/05/13 11:56:25;;;;;;;5.05;1.48;;;25.70;35.90;;;;;;5131366;27;20051;-50
2021/05/13 11:58:56;;;;;;;5.15;1.65;;;25.00;36.90;;;;;;5124572;27;20134;-48
2021/05/13 12:01:37;;;;;;;6.38;1.70;;;24.60;38.00;;;;;;5131811;27;20054;-50
2021/05/13 12:04:08;;;;;;;8.38;2.03;;;24.30;37.40;;;;;;5129639;27;20777;-54
2021/05/13 12:07:02;;;;;;;4.95;1.58;;;24.00;38.20;;;;;;5130492;27;20402;-53
2021/05/13 12:09:35;;;;;;;7.55;1.83;;;23.80;42.00;;;;;;5130605;27;20081;-52
2021/05/13 12:12:02;;;;;;;6.22;2.42;;;23.70;41.10;;;;;;5134614;27;20521;-53
2021/05/13 12:14:32;;;;;;;16.27;10.20;;;23.30;40.10;;;;;;5109525;27;20078;-52
2021/05/13 12:17:00;;;;;;;16.52;13.95;;;23.80;41.20;;;;;;5129217;27;20043;-47
2021/05/13 12:19:28;;;;;;;10.95;7.47;;;24.40;41.70;;;;;;5107369;27;20056;-49
2021/05/13 12:21:59;;;;;;;5.70;1.40;;;25.40;39.90;;;;;;5130493;27;20051;-52
2021/05/13 12:24:27;;;;;;;6.57;3.13;;;25.50;38.80;;;;;;5112258;27;20048;-48
2021/05/13 12:26:54;;;;;;;5.43;2.08;;;24.80;39.50;;;;;;5126395;27;20445;-47
2021/05/13 12:29:20;;;;;;;12.77;7.97;;;25.00;39.50;;;;;;5128696;27;20051;-48
2021/05/13 12:31:47;;;;;;;4.50;1.58;;;24.40;39.50;;;;;;5129137;27;20402;-51
2021/05/13 12:34:35;;;;;;;5.38;1.63;;;24.40;39.70;;;;;;5098966;27;20425;-47
2021/05/13 12:37:04;;;;;;;4.15;1.88;;;23.90;41.40;;;;;;5113076;27;20391;-52
2021/05/13 12:39:32;;;;;;;7.60;3.65;;;23.60;40.90;;;;;;5117743;27;20055;-49
2021/05/13 12:41:59;;;;;;;8.75;2.88;;;24.40;40.50;;;;;;5115580;27;20433;-49
2021/05/13 12:44:27;;;;;;;22.65;18.27;;;25.10;39.00;;;;;;5119879;27;20043;-53
2021/05/13 12:46:54;;;;;;;9.07;4.97;;;25.10;37.90;;;;;;5124266;27;20744;-51
2021/05/13 12:49:26;;;;;;;5.72;2.03;;;25.60;38.80;;;;;;5126335;27;20055;-49
2021/05/13 12:52:03;;;;;;;6.25;2.35;;;25.80;36.20;;;;;;5117487;27;20055;-50
2021/05/13 12:54:34;;;;;;;14.82;11.23;;;26.40;37.10;;;;;;5125142;27;20043;-49
2021/05/13 12:57:09;;;;;;;16.85;14.75;;;26.60;36.20;;;;;;5129158;27;20074;-50
2021/05/13 12:59:37;;;;;;;13.27;9.73;;;25.90;35.60;;;;;;5121574;27;21061;-50
2021/05/13 13:02:03;;;;;;;5.45;3.05;;;24.90;37.80;;;;;;5130248;27;20078;-53
2021/05/13 13:04:48;;;;;;;8.43;6.47;;;24.40;38.00;;;;;;5130139;27;20078;-50